Time;durP1;ratioP1;P1;durP2;ratioP2;P2;SDS_P1;SDS_P2;PMS_P1;PMS_P2;Temp;Humidity;BMP_temperature;BMP_pressure;BME280_temperature;BME280_humidity;BME280_pressure;Samples;Min_cycle;Max_cycle;Signal;HPM_P1;HPM_P2
2023/07/23 00:00:35;;;;;;;;;;;;;;;18.41;nan;100166.63;5044179;28;19916;-82
2023/07/23 00:03:01;;;;;;;;;;;;;;;18.39;nan;100160.66;5045628;28;19920;-82
2023/07/23 00:05:26;;;;;;;;;;;;;;;18.41;nan;100161.25;5050819;28;19917;-81
2023/07/23 00:07:56;;;;;;;;;;;;;;;18.31;nan;100160.91;5050964;28;19919;-82
2023/07/23 00:10:21;;;;;;;;;;;;;;;18.22;nan;100158.44;5050806;28;19917;-82
2023/07/23 00:12:46;;;;;;;;;;;;;;;18.14;nan;100160.50;5052433;28;19912;-82
2023/07/23 00:15:12;;;;;;;;;;;;;;;18.06;nan;100158.09;5052446;28;19920;-82
2023/07/23 00:17:39;;;;;;;;;;;;;;;17.98;nan;100162.63;5050523;28;19925;-82
2023/07/23 00:20:05;;;;;;;;;;;;;;;17.92;nan;100160.78;5049951;28;19926;-82
2023/07/23 00:22:34;;;;;;;;;;;;;;;17.87;nan;100149.06;5061252;28;19923;-82
2023/07/23 00:25:00;;;;;;;;;;;;;;;17.78;nan;100153.78;5052401;28;19916;-82
2023/07/23 00:27:26;;;;;;;;;;;;;;;17.74;nan;100152.56;5059937;28;19917;-82
2023/07/23 00:29:52;;;;;;;;;;;;;;;17.73;nan;100154.44;5064730;28;19928;-82
2023/07/23 00:32:18;;;;;;;;;;;;;;;17.70;nan;100143.31;5050666;28;19955;-82
2023/07/23 00:34:43;;;;;;;;;;;;;;;17.66;nan;100147.41;5071838;28;19924;-82
2023/07/23 00:37:09;;;;;;;;;;;;;;;17.60;nan;100141.88;5054486;28;20266;-82
2023/07/23 00:39:34;;;;;;;;;;;;;;;17.55;nan;100151.56;5058902;28;19916;-82
2023/07/23 00:41:59;;;;;;;;;;;;;;;17.51;nan;100144.97;5064300;28;19948;-82
2023/07/23 00:44:24;;;;;;;;;;;;;;;17.49;nan;100137.13;5057254;28;20293;-82
2023/07/23 00:46:50;;;;;;;;;;;;;;;17.41;nan;100146.19;5055068;28;19958;-82
2023/07/23 00:49:18;;;;;;;;;;;;;;;17.32;nan;100147.44;5051089;28;19923;-82
2023/07/23 00:51:43;;;;;;;;;;;;;;;17.24;nan;100141.47;5052290;28;19978;-82
2023/07/23 00:54:09;;;;;;;;;;;;;;;17.17;nan;100149.50;5060415;28;20370;-81
2023/07/23 00:56:35;;;;;;;;;;;;;;;17.09;nan;100139.81;5053548;28;19923;-82
2023/07/23 00:59:00;;;;;;;;;;;;;;;17.05;nan;100140.44;5054151;28;20305;-82
2023/07/23 01:01:25;;;;;;;;;;;;;;;16.98;nan;100141.25;5052486;28;19991;-82
2023/07/23 01:03:51;;;;;;;;;;;;;;;16.95;nan;100133.63;5053295;28;19986;-82
2023/07/23 01:06:16;;;;;;;;;;;;;;;16.94;nan;100129.31;5051718;28;19917;-82
2023/07/23 01:08:43;;;;;;;;;;;;;;;16.92;nan;100130.53;5051728;28;19924;-82
2023/07/23 01:11:08;;;;;;;;;;;;;;;16.91;nan;100132.38;5050963;28;20298;-82
2023/07/23 01:13:36;;;;;;;;;;;;;;;16.86;nan;100132.19;5057167;28;19912;-82
2023/07/23 01:16:07;;;;;;;;;;;;;;;16.83;nan;100127.25;5057275;28;19920;-82
2023/07/23 01:18:35;;;;;;;;;;;;;;;16.80;nan;100124.16;5053649;28;19925;-82
2023/07/23 01:21:01;;;;;;;;;;;;;;;16.75;nan;100127.38;5043671;28;20217;-82
2023/07/23 01:23:27;;;;;;;;;;;;;;;16.71;nan;100123.50;5055280;28;19967;-82
2023/07/23 01:25:54;;;;;;;;;;;;;;;16.68;nan;100123.88;5051050;28;20003;-82
2023/07/23 01:28:20;;;;;;;;;;;;;;;16.64;nan;100133.34;5057687;28;19951;-81
2023/07/23 01:30:48;;;;;;;;;;;;;;;16.60;nan;100124.91;5046457;28;19924;-82
2023/07/23 01:33:14;;;;;;;;;;;;;;;16.56;nan;100128.97;5055700;28;20009;-81
2023/07/23 01:35:40;;;;;;;;;;;;;;;16.49;nan;100122.81;5050890;28;19985;-81
2023/07/23 01:38:05;;;;;;;;;;;;;;;16.42;nan;100116.63;5055121;28;19978;-81
2023/07/23 01:40:31;;;;;;;;;;;;;;;16.38;nan;100108.22;5053030;28;19924;-82
2023/07/23 01:42:57;;;;;;;;;;;;;;;16.33;nan;100114.13;5055262;28;19921;-81
2023/07/23 01:45:22;;;;;;;;;;;;;;;16.30;nan;100111.88;5059412;28;19939;-81
2023/07/23 01:47:48;;;;;;;;;;;;;;;16.26;nan;100110.63;5053680;28;19916;-82
2023/07/23 01:50:13;;;;;;;;;;;;;;;16.28;nan;100103.25;5058855;28;20336;-81
2023/07/23 01:52:38;;;;;;;;;;;;;;;16.34;nan;100105.09;5058863;28;19919;-82
2023/07/23 01:55:04;;;;;;;;;;;;;;;16.39;nan;100103.69;5051778;28;20396;-82
2023/07/23 01:57:31;;;;;;;;;;;;;;;16.42;nan;100103.28;5057137;28;20181;-82
2023/07/23 01:59:56;;;;;;;;;;;;;;;16.46;nan;100107.19;5059875;28;19980;-82
2023/07/23 02:02:21;;;;;;;;;;;;;;;16.49;nan;100093.44;5063038;28;19916;-82
2023/07/23 02:04:47;;;;;;;;;;;;;;;16.51;nan;100089.53;5060479;28;19920;-82
2023/07/23 02:07:15;;;;;;;;;;;;;;;16.55;nan;100089.97;5059471;28;19913;-82
2023/07/23 02:09:40;;;;;;;;;;;;;;;16.52;nan;100091.22;5067951;28;19934;-82
2023/07/23 02:12:09;;;;;;;;;;;;;;;16.44;nan;100083.38;5059576;28;20273;-82
2023/07/23 02:14:34;;;;;;;;;;;;;;;16.37;nan;100089.72;5051947;28;19939;-82
2023/07/23 02:17:00;;;;;;;;;;;;;;;16.33;nan;100089.31;5042708;28;19976;-81
2023/07/23 02:19:28;;;;;;;;;;;;;;;16.32;nan;100085.78;5057464;28;19916;-82
2023/07/23 02:21:54;;;;;;;;;;;;;;;16.34;nan;100090.94;5060842;28;19913;-82
2023/07/23 02:24:22;;;;;;;;;;;;;;;16.35;nan;100090.75;5061473;28;19920;-82
2023/07/23 02:26:53;;;;;;;;;;;;;;;16.37;nan;100089.72;5059367;28;19916;-83
2023/07/23 02:29:21;;;;;;;;;;;;;;;16.40;nan;100094.66;5063052;28;19983;-82
2023/07/23 02:31:47;;;;;;;;;;;;;;;16.42;nan;100095.28;5062331;28;19912;-82
2023/07/23 02:34:12;;;;;;;;;;;;;;;16.44;nan;100091.38;5050634;28;19951;-82
2023/07/23 02:36:44;;;;;;;;;;;;;;;16.43;nan;100076.41;5052311;28;19939;-82
2023/07/23 02:39:09;;;;;;;;;;;;;;;16.44;nan;100085.22;5059246;28;19984;-82
2023/07/23 02:41:38;;;;;;;;;;;;;;;16.44;nan;100085.22;5071397;28;19932;-82
2023/07/23 02:44:03;;;;;;;;;;;;;;;16.41;nan;100094.44;5062773;28;19917;-82
2023/07/23 02:46:29;;;;;;;;;;;;;;;16.40;nan;100092.81;5075271;28;20166;-82
2023/07/23 02:49:01;;;;;;;;;;;;;;;16.41;nan;100097.13;5053258;28;19919;-82
2023/07/23 02:51:27;;;;;;;;;;;;;;;16.40;nan;100094.66;5071734;28;19913;-82
2023/07/23 02:53:52;;;;;;;;;;;;;;;16.40;nan;100095.50;5059526;28;19928;-82
2023/07/23 02:56:21;;;;;;;;;;;;;;;16.42;nan;100093.44;5057794;28;20074;-82
2023/07/23 02:58:47;;;;;;;;;;;;;;;16.49;nan;100090.78;5059769;28;19920;-82
2023/07/23 03:01:12;;;;;;;;;;;;;;;16.52;nan;100093.06;5059672;28;19920;-82
2023/07/23 03:03:37;;;;;;;;;;;;;;;16.60;nan;100092.88;5058000;28;19924;-82
2023/07/23 03:06:05;;;;;;;;;;;;;;;16.63;nan;100088.97;5060321;28;19912;-82
2023/07/23 03:08:31;;;;;;;;;;;;;;;16.69;nan;100089.00;5058792;28;19920;-82
2023/07/23 03:10:59;;;;;;;;;;;;;;;16.75;nan;100098.84;5056678;28;19912;-83
2023/07/23 03:13:24;;;;;;;;;;;;;;;16.80;nan;100089.44;5065297;28;19924;-82
2023/07/23 03:15:50;;;;;;;;;;;;;;;16.84;nan;100090.69;5059642;28;19917;-82
2023/07/23 03:18:18;;;;;;;;;;;;;;;16.90;nan;100092.53;5053881;28;19971;-82
2023/07/23 03:20:46;;;;;;;;;;;;;;;16.95;nan;100090.09;5054152;28;20340;-82
2023/07/23 03:23:11;;;;;;;;;;;;;;;17.00;nan;100089.47;5068637;28;19916;-82
2023/07/23 03:25:37;;;;;;;;;;;;;;;17.04;nan;100086.19;5056678;28;20406;-82
2023/07/23 03:28:03;;;;;;;;;;;;;;;17.10;nan;100088.03;5056609;28;20393;-83
2023/07/23 03:30:28;;;;;;;;;;;;;;;17.17;nan;100083.50;5061281;28;19913;-82
2023/07/23 03:32:56;;;;;;;;;;;;;;;17.30;nan;100087.19;5048463;28;20398;-82
2023/07/23 03:35:25;;;;;;;;;;;;;;;17.40;nan;100083.09;5038962;28;19944;-82
2023/07/23 03:37:53;;;;;;;;;;;;;;;17.49;nan;100074.84;5048814;28;19923;-82
2023/07/23 03:40:18;;;;;;;;;;;;;;;17.56;nan;100081.00;5044912;28;19928;-83
2023/07/23 03:42:46;;;;;;;;;;;;;;;17.63;nan;100073.78;5064837;28;20003;-82
2023/07/23 03:45:24;;;;;;;;;;;;;;;17.68;nan;100068.63;5051661;28;19964;-82
2023/07/23 03:47:52;;;;;;;;;;;;;;;17.73;nan;100079.53;5062624;28;20294;-83
2023/07/23 03:50:17;;;;;;;;;;;;;;;17.76;nan;100075.63;5052208;28;19948;-82
2023/07/23 03:52:45;;;;;;;;;;;;;;;17.76;nan;100073.78;5060272;28;19920;-82
2023/07/23 03:55:14;;;;;;;;;;;;;;;17.80;nan;100084.84;5055898;28;19919;-82
2023/07/23 03:57:39;;;;;;;;;;;;;;;17.81;nan;100082.00;5057356;28;20366;-82
2023/07/23 04:00:05;;;;;;;;;;;;;;;17.86;nan;100081.38;5045987;28;19924;-82
2023/07/23 04:02:34;;;;;;;;;;;;;;;17.92;nan;100077.84;5076052;28;19916;-83
2023/07/23 04:05:02;;;;;;;;;;;;;;;17.98;nan;100084.22;5057792;28;19920;-82
2023/07/23 04:07:33;;;;;;;;;;;;;;;18.08;nan;100075.75;5054997;28;19917;-82
2023/07/23 04:09:59;;;;;;;;;;;;;;;18.16;nan;100083.53;5074956;28;19958;-82
2023/07/23 04:12:24;;;;;;;;;;;;;;;18.23;nan;100085.16;5070651;28;19916;-82
2023/07/23 04:14:52;;;;;;;;;;;;;;;18.32;nan;100093.75;5067645;28;19991;-82
2023/07/23 04:17:28;;;;;;;;;;;;;;;18.38;nan;100092.91;5051790;28;19924;-82
2023/07/23 04:19:53;;;;;;;;;;;;;;;18.47;nan;100093.47;5064098;28;19912;-83
2023/07/23 04:22:18;;;;;;;;;;;;;;;18.54;nan;100096.13;5051453;28;19928;-82
2023/07/23 04:24:51;;;;;;;;;;;;;;;18.58;nan;100086.63;5061017;28;19940;-82
2023/07/23 04:27:19;;;;;;;;;;;;;;;18.64;nan;100093.81;5059511;28;19916;-82
2023/07/23 04:29:48;;;;;;;;;;;;;;;18.72;nan;100092.72;5063238;28;19919;-83
2023/07/23 04:32:13;;;;;;;;;;;;;;;18.78;nan;100095.41;5053478;28;19963;-82
2023/07/23 04:34:41;;;;;;;;;;;;;;;18.80;nan;100089.81;5057962;28;19916;-82
2023/07/23 04:37:07;;;;;;;;;;;;;;;18.83;nan;100105.44;5065569;28;19979;-83
2023/07/23 04:39:32;;;;;;;;;;;;;;;18.84;nan;100099.88;5059990;28;19995;-83
2023/07/23 04:41:58;;;;;;;;;;;;;;;18.87;nan;100095.94;5069619;28;20472;-82
2023/07/23 04:44:27;;;;;;;;;;;;;;;18.88;nan;100103.78;5056795;28;19966;-83
2023/07/23 04:46:54;;;;;;;;;;;;;;;18.93;nan;100099.63;5064105;28;19913;-82
2023/07/23 04:49:23;;;;;;;;;;;;;;;18.93;nan;100100.44;5055725;28;19920;-83
2023/07/23 04:51:48;;;;;;;;;;;;;;;18.99;nan;100114.81;5065319;28;19944;-82
2023/07/23 04:54:16;;;;;;;;;;;;;;;19.02;nan;100114.38;5061527;28;19920;-82
2023/07/23 04:56:41;;;;;;;;;;;;;;;19.02;nan;100106.34;5063065;28;19912;-82
2023/07/23 04:59:07;;;;;;;;;;;;;;;19.01;nan;100118.09;5080079;28;20327;-82
2023/07/23 05:01:33;;;;;;;;;;;;;;;19.01;nan;100115.44;5057265;28;19968;-83
2023/07/23 05:04:00;;;;;;;;;;;;;;;19.07;nan;100122.59;5065456;28;19989;-83
2023/07/23 05:06:28;;;;;;;;;;;;;;;19.07;nan;100127.97;5055993;28;19976;-83
2023/07/23 05:08:56;;;;;;;;;;;;;;;19.10;nan;100117.63;5072871;28;20059;-84
2023/07/23 05:11:21;;;;;;;;;;;;;;;19.12;nan;100136.19;5059113;28;19924;-82
2023/07/23 05:13:49;;;;;;;;;;;;;;;19.20;nan;100137.75;5065440;28;19912;-83
2023/07/23 05:16:14;;;;;;;;;;;;;;;19.31;nan;100137.88;5043680;28;20424;-83
2023/07/23 05:18:40;;;;;;;;;;;;;;;19.40;nan;100135.75;5043069;28;20003;-83
2023/07/23 05:21:05;;;;;;;;;;;;;;;19.51;nan;100144.94;5063622;28;19912;-84
2023/07/23 05:23:31;;;;;;;;;;;;;;;19.63;nan;100136.97;5071900;28;19921;-82
2023/07/23 05:25:57;;;;;;;;;;;;;;;19.67;nan;100140.88;5061652;28;19912;-84
2023/07/23 05:28:22;;;;;;;;;;;;;;;19.71;nan;100145.59;5060345;28;19970;-82
2023/07/23 05:30:55;;;;;;;;;;;;;;;19.74;nan;100141.66;5061889;28;19948;-82
2023/07/23 05:33:21;;;;;;;;;;;;;;;19.73;nan;100135.47;5056546;28;19916;-81
2023/07/23 05:35:51;;;;;;;;;;;;;;;19.72;nan;100146.41;5052861;28;19920;-82
2023/07/23 05:38:16;;;;;;;;;;;;;;;19.68;nan;100145.22;5050706;28;19987;-82
2023/07/23 05:40:42;;;;;;;;;;;;;;;19.60;nan;100143.63;5043237;28;19915;-80
2023/07/23 05:43:17;;;;;;;;;;;;;;;19.58;nan;100144.88;5061839;28;19921;-83
2023/07/23 05:45:45;;;;;;;;;;;;;;;19.55;nan;100148.81;5059735;28;19920;-82
2023/07/23 05:48:10;;;;;;;;;;;;;;;19.52;nan;100146.56;5066910;28;20374;-81
2023/07/23 05:50:35;;;;;;;;;;;;;;;19.44;nan;100146.84;5059278;28;19920;-84
2023/07/23 05:53:01;;;;;;;;;;;;;;;19.45;nan;100138.59;5061542;28;19983;-83
2023/07/23 05:55:26;;;;;;;;;;;;;;;19.42;nan;99980.81;5063644;28;20245;-83
2023/07/23 05:57:52;;;;;;;;;;;;;;;19.41;nan;99970.34;5040494;28;19917;-83
2023/07/23 06:00:17;;;;;;;;;;;;;;;19.45;nan;99975.03;5056170;28;20597;-82
2023/07/23 06:02:45;;;;;;;;;;;;;;;19.50;nan;99972.47;5050347;28;19920;-82
2023/07/23 06:05:10;;;;;;;;;;;;;;;19.47;nan;99967.56;5057968;28;19912;-82
2023/07/23 06:07:36;;;;;;;;;;;;;;;19.54;nan;99986.25;5059129;28;19971;-82
2023/07/23 06:10:01;;;;;;;;;;;;;;;;;;5055535;28;20030;-83
2023/07/23 06:12:27;;;;;;;;;;;;;;;19.57;nan;99972.41;5053137;28;19935;-83
2023/07/23 06:14:55;;;;;;;;;;;;;;;19.57;nan;99977.78;5033708;28;19921;-83
2023/07/23 06:17:21;;;;;;;;;;;;;;;19.64;nan;99966.94;5054062;28;20135;-83
2023/07/23 06:19:47;;;;;;;;;;;;;;;19.67;nan;99978.06;5047445;28;19912;-83
2023/07/23 06:22:12;;;;;;;;;;;;;;;19.70;nan;99976.81;5044304;28;19924;-83
2023/07/23 06:24:38;;;;;;;;;;;;;;;19.81;nan;99977.94;5054821;28;19920;-83
2023/07/23 06:27:03;;;;;;;;;;;;;;;19.91;nan;99956.75;5053588;28;20385;-83
2023/07/23 06:29:37;;;;;;;;;;;;;;;19.98;nan;99978.94;5056291;28;19965;-84
2023/07/23 06:32:03;;;;;;;;;;;;;;;20.37;nan;100137.84;5046165;28;19919;-84
2023/07/23 06:34:34;;;;;;;;;;;;;;;20.64;nan;100133.00;5047524;28;20003;-84
2023/07/23 06:36:59;;;;;;;;;;;;;;;20.86;nan;100140.56;5055003;28;19916;-84
2023/07/23 06:39:30;;;;;;;;;;;;;;;20.95;nan;100134.63;5048285;28;19913;-83
2023/07/23 06:41:55;;;;;;;;;;;;;;;21.53;nan;100135.78;5056467;28;19932;-83
2023/07/23 06:44:24;;;;;;;;;;;;;;;22.18;nan;100136.66;5044870;28;19916;-83
2023/07/23 06:46:49;;;;;;;;;;;;;;;22.75;nan;100136.72;5052030;28;19913;-83
2023/07/23 06:49:17;;;;;;;;;;;;;;;23.09;nan;100147.56;5054337;28;19953;-83
2023/07/23 06:51:42;;;;;;;;;;;;;;;23.19;nan;100147.78;5052751;28;20317;-84
2023/07/23 06:54:08;;;;;;;;;;;;;;;23.50;nan;100145.53;5034084;28;19955;-85
2023/07/23 06:56:35;;;;;;;;;;;;;;;23.79;nan;100145.44;5058990;28;19920;-84
2023/07/23 06:59:01;;;;;;;;;;;;;;;24.14;nan;100139.72;5056342;28;19920;-84
2023/07/23 07:01:32;;;;;;;;;;;;;;;24.23;nan;100134.69;5055704;28;20003;-83
2023/07/23 07:03:58;;;;;;;;;;;;;;;24.29;nan;100131.00;5060063;28;19947;-84
2023/07/23 07:06:23;;;;;;;;;;;;;;;24.27;nan;100133.94;5053733;28;19925;-83
2023/07/23 07:08:49;;;;;;;;;;;;;;;24.47;nan;100133.38;5050774;28;20329;-83
2023/07/23 07:11:20;;;;;;;;;;;;;;;24.57;nan;100121.84;5057143;28;19920;-84
2023/07/23 07:13:45;;;;;;;;;;;;;;;24.78;nan;100125.59;5048846;28;19916;-84
2023/07/23 07:16:10;;;;;;;;;;;;;;;25.08;nan;100124.25;5051589;28;20046;-85
2023/07/23 07:18:35;;;;;;;;;;;;;;;25.30;nan;100119.56;5052410;28;19975;-85
2023/07/23 07:21:04;;;;;;;;;;;;;;;25.50;nan;100120.78;5057448;28;19916;-85
2023/07/23 07:23:33;;;;;;;;;;;;;;;25.66;nan;100116.28;5052185;28;19920;-85
2023/07/23 07:26:00;;;;;;;;;;;;;;;26.00;nan;100106.72;5042033;28;19925;-85
2023/07/23 07:28:26;;;;;;;;;;;;;;;25.97;nan;100120.00;5049431;28;20277;-85
2023/07/23 07:30:55;;;;;;;;;;;;;;;25.94;nan;100110.53;5056574;28;19924;-83
2023/07/23 07:33:20;;;;;;;;;;;;;;;25.98;nan;100106.22;5061770;28;19916;-85
2023/07/23 07:35:45;;;;;;;;;;;;;;;26.05;nan;100114.06;5038317;28;20303;-85
2023/07/23 07:38:11;;;;;;;;;;;;;;;26.26;nan;100107.66;5052715;28;20018;-85
2023/07/23 07:40:39;;;;;;;;;;;;;;;26.40;nan;100112.59;5045234;28;20012;-85
2023/07/23 07:43:04;;;;;;;;;;;;;;;26.28;nan;100101.97;5052185;28;19921;-85
2023/07/23 07:45:29;;;;;;;;;;;;;;;26.53;nan;100106.66;5055936;28;19924;-85
2023/07/23 07:47:54;;;;;;;;;;;;;;;26.66;nan;100103.44;5055875;28;19917;-84
2023/07/23 07:50:20;;;;;;;;;;;;;;;26.92;nan;100106.19;5061704;28;20022;-84
2023/07/23 07:52:46;;;;;;;;;;;;;;;27.31;nan;100111.88;5051648;28;19921;-84
2023/07/23 07:55:11;;;;;;;;;;;;;;;27.45;nan;100108.63;5041896;28;20377;-83
2023/07/23 07:57:36;;;;;;;;;;;;;;;27.25;nan;100110.28;5038456;28;19913;-81
2023/07/23 08:00:03;;;;;;;;;;;;;;;27.44;nan;100112.44;5042326;28;19917;-83
2023/07/23 08:02:28;;;;;;;;;;;;;;;27.46;nan;100104.81;5052307;28;20114;-83
2023/07/23 08:04:53;;;;;;;;;;;;;;;27.67;nan;100109.13;5055109;28;19917;-83
2023/07/23 08:07:19;;;;;;;;;;;;;;;28.00;nan;100106.88;5056397;28;20439;-82
2023/07/23 08:09:45;;;;;;;;;;;;;;;27.94;nan;100118.88;5053121;28;20383;-84
2023/07/23 08:12:11;;;;;;;;;;;;;;;27.98;nan;100113.66;5060423;28;20456;-82
2023/07/23 08:14:37;;;;;;;;;;;;;;;28.07;nan;100117.44;5038089;28;19959;-82
2023/07/23 08:17:02;;;;;;;;;;;;;;;28.20;nan;100111.41;5053142;28;19923;-83
2023/07/23 08:19:28;;;;;;;;;;;;;;;28.12;nan;100107.34;5054987;28;19912;-84
2023/07/23 08:21:54;;;;;;;;;;;;;;;27.77;nan;100110.16;5055554;28;20389;-83
2023/07/23 08:24:19;;;;;;;;;;;;;;;27.59;nan;100108.88;5057580;28;19923;-83
2023/07/23 08:26:47;;;;;;;;;;;;;;;27.53;nan;100118.94;5055986;28;19925;-84
2023/07/23 08:29:13;;;;;;;;;;;;;;;27.66;nan;100110.22;5053248;28;19913;-83
2023/07/23 08:31:38;;;;;;;;;;;;;;;27.68;nan;100110.75;5050859;28;19921;-83
2023/07/23 08:34:03;;;;;;;;;;;;;;;27.57;nan;100105.63;5045292;28;19912;-83
2023/07/23 08:36:31;;;;;;;;;;;;;;;27.72;nan;100111.00;5049878;28;19921;-82
2023/07/23 08:38:57;;;;;;;;;;;;;;;27.50;nan;100112.13;5052283;28;20011;-84
2023/07/23 08:41:28;;;;;;;;;;;;;;;27.36;nan;100118.41;5046645;28;20014;-86
2023/07/23 08:44:12;;;;;;;;;;;;;;;27.20;nan;100113.00;5049230;28;20190;-82
2023/07/23 08:46:47;;;;;;;;;;;;;;;26.94;nan;100111.34;5049460;28;20411;-84
2023/07/23 08:49:12;;;;;;;;;;;;;;;26.76;nan;100116.19;5050768;28;19923;-82
2023/07/23 08:51:43;;;;;;;;;;;;;;;26.60;nan;100117.25;5044986;28;19925;-83
2023/07/23 08:54:08;;;;;;;;;;;;;;;26.49;nan;100102.84;5057628;28;19920;-83
2023/07/23 08:56:34;;;;;;;;;;;;;;;26.48;nan;100107.47;5057854;28;19966;-83
2023/07/23 08:59:01;;;;;;;;;;;;;;;26.81;nan;100099.94;5058057;28;20366;-81
2023/07/23 09:01:28;;;;;;;;;;;;;;;26.99;nan;100111.34;5052444;28;19947;-82
2023/07/23 09:03:53;;;;;;;;;;;;;;;27.06;nan;100117.31;5052705;28;19999;-81
2023/07/23 09:06:19;;;;;;;;;;;;;;;26.79;nan;100099.41;5059225;28;19955;-81
2023/07/23 09:08:44;;;;;;;;;;;;;;;26.66;nan;100105.34;5053140;28;19980;-83
2023/07/23 09:11:10;;;;;;;;;;;;;;;26.65;nan;100098.31;5060410;28;19939;-82
2023/07/23 09:13:36;;;;;;;;;;;;;;;26.76;nan;100101.84;5053289;28;19932;-82
2023/07/23 09:16:01;;;;;;;;;;;;;;;26.58;nan;100097.75;5053614;28;20316;-82
2023/07/23 09:18:26;;;;;;;;;;;;;;;26.75;nan;100097.50;5054897;28;19920;-83
2023/07/23 09:20:52;;;;;;;;;;;;;;;26.69;nan;100099.38;5057175;28;19917;-83
2023/07/23 09:23:17;;;;;;;;;;;;;;;26.80;nan;100097.50;5057768;28;19928;-83
2023/07/23 09:25:44;;;;;;;;;;;;;;;26.78;nan;100096.97;5058329;28;19935;-83
2023/07/23 09:28:19;;;;;;;;;;;;;;;26.70;nan;100098.31;5057365;28;19945;-85
2023/07/23 09:30:45;;;;;;;;;;;;;;;26.72;nan;100098.03;5058833;28;20295;-83
2023/07/23 09:33:11;;;;;;;;;;;;;;;26.62;nan;100088.78;5067066;28;19913;-83
2023/07/23 09:35:38;;;;;;;;;;;;;;;26.74;nan;100091.25;5055637;28;20277;-83
2023/07/23 09:38:04;;;;;;;;;;;;;;;26.80;nan;100090.16;5051236;28;19913;-84
2023/07/23 09:40:33;;;;;;;;;;;;;;;26.92;nan;100102.66;5049006;28;20340;-84
2023/07/23 09:42:59;;;;;;;;;;;;;;;26.88;nan;100095.03;5052922;28;20377;-85
2023/07/23 09:45:24;;;;;;;;;;;;;;;26.73;nan;100084.19;5052093;28;19920;-84
2023/07/23 09:47:49;;;;;;;;;;;;;;;26.65;nan;100084.75;5058274;28;19917;-84
2023/07/23 09:50:14;;;;;;;;;;;;;;;26.47;nan;100086.84;5053140;28;20289;-83
2023/07/23 09:52:40;;;;;;;;;;;;;;;26.37;nan;100089.53;5057167;28;20001;-84
2023/07/23 09:55:05;;;;;;;;;;;;;;;26.37;nan;100092.25;5043790;28;19923;-85
2023/07/23 09:57:32;;;;;;;;;;;;;;;26.11;nan;100088.63;5053118;28;19920;-83
2023/07/23 09:59:57;;;;;;;;;;;;;;;26.16;nan;100090.56;5056300;28;19939;-84
2023/07/23 10:02:23;;;;;;;;;;;;;;;26.12;nan;100089.44;5044001;28;19920;-84
2023/07/23 10:04:48;;;;;;;;;;;;;;;26.01;nan;100085.91;5044312;28;20324;-83
2023/07/23 10:07:13;;;;;;;;;;;;;;;25.99;nan;100091.56;5049076;28;19921;-83
2023/07/23 10:09:39;;;;;;;;;;;;;;;25.91;nan;100086.69;5054596;28;19962;-83
2023/07/23 10:12:05;;;;;;;;;;;;;;;25.80;nan;100085.75;5051112;28;20386;-83
2023/07/23 10:14:30;;;;;;;;;;;;;;;25.85;nan;100087.69;5051726;28;20060;-83
2023/07/23 10:16:55;;;;;;;;;;;;;;;25.98;nan;100089.97;5051981;28;19927;-83
2023/07/23 10:19:21;;;;;;;;;;;;;;;26.52;nan;100077.91;5045802;28;19921;-83
2023/07/23 10:21:48;;;;;;;;;;;;;;;27.05;nan;100074.97;5057417;28;19939;-82
2023/07/23 10:24:13;;;;;;;;;;;;;;;27.50;nan;100073.31;5055752;28;19927;-82
2023/07/23 10:26:38;;;;;;;;;;;;;;;27.73;nan;100072.69;5056484;28;19980;-83
2023/07/23 10:29:06;;;;;;;;;;;;;;;27.66;nan;100072.19;5059206;28;20011;-82
2023/07/23 10:31:32;;;;;;;;;;;;;;;27.78;nan;100076.50;5053480;28;20318;-82
2023/07/23 10:33:57;;;;;;;;;;;;;;;27.89;nan;100069.97;5045775;28;19927;-82
2023/07/23 10:36:23;;;;;;;;;;;;;;;27.91;nan;100063.16;5050576;28;19928;-84
2023/07/23 10:39:03;;;;;;;;;;;;;;;28.15;nan;100065.19;5052651;28;20406;-82
2023/07/23 10:41:49;;;;;;;;;;;;;;;28.19;nan;100060.03;5052874;28;19944;-83
2023/07/23 10:44:24;;;;;;;;;;;;;;;28.63;nan;100048.34;5050894;28;19920;-83
2023/07/23 10:46:49;;;;;;;;;;;;;;;29.54;nan;100046.69;5046442;28;19951;-83
2023/07/23 10:49:22;;;;;;;;;;;;;;;30.10;nan;100045.22;5049049;28;19963;-83
2023/07/23 10:51:50;;;;;;;;;;;;;;;30.44;nan;100046.94;5048081;28;19917;-83
2023/07/23 10:54:15;;;;;;;;;;;;;;;30.51;nan;100039.22;5045615;28;19925;-83
2023/07/23 10:56:41;;;;;;;;;;;;;;;30.67;nan;100035.09;5046659;28;19924;-82
2023/07/23 10:59:07;;;;;;;;;;;;;;;30.95;nan;100035.22;5049234;28;19932;-83
2023/07/23 11:01:36;;;;;;;;;;;;;;;31.13;nan;100027.25;5049262;28;19946;-83
2023/07/23 11:04:08;;;;;;;;;;;;;;;31.18;nan;100022.53;5048021;28;19921;-84
2023/07/23 11:06:33;;;;;;;;;;;;;;;30.87;nan;100025.00;5046549;28;19967;-84
2023/07/23 11:09:08;;;;;;;;;;;;;;;30.85;nan;100027.22;5051667;28;19923;-84
2023/07/23 11:11:36;;;;;;;;;;;;;;;31.01;nan;100025.84;5050557;28;19917;-82
2023/07/23 11:14:15;;;;;;;;;;;;;;;31.08;nan;100033.63;5042052;28;20011;-82
2023/07/23 11:16:41;;;;;;;;;;;;;;;30.93;nan;100026.50;5042046;28;20467;-84
2023/07/23 11:19:07;;;;;;;;;;;;;;;30.55;nan;100021.09;5045088;28;20158;-82
2023/07/23 11:21:32;;;;;;;;;;;;;;;30.55;nan;100015.66;5045603;28;20342;-83
2023/07/23 11:23:59;;;;;;;;;;;;;;;30.13;nan;100016.53;5038709;28;19979;-84
2023/07/23 11:26:24;;;;;;;;;;;;;;;29.97;nan;100024.94;5039017;28;19968;-82
2023/07/23 11:28:51;;;;;;;;;;;;;;;29.72;nan;100022.53;5039093;28;19979;-83
2023/07/23 11:31:16;;;;;;;;;;;;;;;29.32;nan;100014.53;5048173;28;19987;-83
2023/07/23 11:33:42;;;;;;;;;;;;;;;28.94;nan;100027.16;5049824;28;19935;-83
2023/07/23 11:36:09;;;;;;;;;;;;;;;28.70;nan;100029.78;5054908;28;19917;-84
2023/07/23 11:38:34;;;;;;;;;;;;;;;28.57;nan;100026.63;5052194;28;19917;-83
2023/07/23 11:41:00;;;;;;;;;;;;;;;28.54;nan;100021.75;5052160;28;19923;-82
2023/07/23 11:43:25;;;;;;;;;;;;;;;28.48;nan;100020.16;5052404;28;19920;-83
2023/07/23 11:45:51;;;;;;;;;;;;;;;28.32;nan;100029.50;5052452;28;19923;-83
2023/07/23 11:48:18;;;;;;;;;;;;;;;28.40;nan;100020.75;5049602;28;19924;-84
2023/07/23 11:50:44;;;;;;;;;;;;;;;28.50;nan;100022.59;5050953;28;19917;-84
2023/07/23 11:53:09;;;;;;;;;;;;;;;28.44;nan;100021.00;5046687;28;19931;-83
2023/07/23 11:55:34;;;;;;;;;;;;;;;28.45;nan;100017.19;5044001;28;20326;-84
2023/07/23 11:58:00;;;;;;;;;;;;;;;28.49;nan;100021.81;5043852;28;20012;-81
2023/07/23 12:00:25;;;;;;;;;;;;;;;28.70;nan;100018.91;5048982;28;19939;-85
2023/07/23 12:02:50;;;;;;;;;;;;;;;28.59;nan;100010.84;5051178;28;19935;-84
2023/07/23 12:05:15;;;;;;;;;;;;;;;28.57;nan;100007.56;5051835;28;19923;-83
2023/07/23 12:07:41;;;;;;;;;;;;;;;28.64;nan;100004.53;5051685;28;19955;-83
2023/07/23 12:10:07;;;;;;;;;;;;;;;28.73;nan;100002.03;5058189;28;19928;-83
2023/07/23 12:12:32;;;;;;;;;;;;;;;28.74;nan;100007.16;5062177;28;19916;-83
2023/07/23 12:15:04;;;;;;;;;;;;;;;28.82;nan;100007.66;5061318;28;19924;-82
2023/07/23 12:17:29;;;;;;;;;;;;;;;28.93;nan;99990.94;5053394;28;19927;-82
2023/07/23 12:19:54;;;;;;;;;;;;;;;29.01;nan;99990.31;5062085;28;19917;-84
2023/07/23 12:22:19;;;;;;;;;;;;;;;29.08;nan;99983.75;5058304;28;20004;-84
2023/07/23 12:24:45;;;;;;;;;;;;;;;29.27;nan;99991.97;5054709;28;20011;-83
2023/07/23 12:27:10;;;;;;;;;;;;;;;29.50;nan;99990.38;5055809;28;19920;-83
2023/07/23 12:29:40;;;;;;;;;;;;;;;29.89;nan;99984.72;5054975;28;19961;-83
2023/07/23 12:32:12;;;;;;;;;;;;;;;30.05;nan;99979.84;5049943;28;19935;-83
2023/07/23 12:34:38;;;;;;;;;;;;;;;30.23;nan;99973.56;5055535;28;19943;-83
2023/07/23 12:37:03;;;;;;;;;;;;;;;30.54;nan;99975.84;5054021;28;19916;-82
2023/07/23 12:39:28;;;;;;;;;;;;;;;30.61;nan;99970.81;5047763;28;20378;-84
2023/07/23 12:41:53;;;;;;;;;;;;;;;30.08;nan;99968.34;5052586;28;19949;-81
2023/07/23 12:44:18;;;;;;;;;;;;;;;29.72;nan;99968.03;5069170;28;20011;-82
2023/07/23 12:46:44;;;;;;;;;;;;;;;29.56;nan;99964.69;5055072;28;20394;-84
2023/07/23 12:49:09;;;;;;;;;;;;;;;29.42;nan;99968.13;5054612;28;19916;-84
2023/07/23 12:51:34;;;;;;;;;;;;;;;29.31;nan;99963.88;5054683;28;19916;-83
2023/07/23 12:53:59;;;;;;;;;;;;;;;29.20;nan;99956.94;5054279;28;19917;-84